Time;durP1;ratioP1;P1;durP2;ratioP2;P2;SDS_P1;SDS_P2;PMS_P1;PMS_P2;Temp;Humidity;BMP_temperature;BMP_pressure;BME280_temperature;BME280_humidity;BME280_pressure;Samples;Min_cycle;Max_cycle;Signal;HPM_P1;HPM_P2
2021/01/22 00:01:23;;;;;;;0.10;0.10;;;;;;;1.45;100.00;96837.13;5032650;28;20048;-87
2021/01/22 00:04:27;;;;;;;0.10;0.10;;;;;;;1.37;100.00;96841.56;5032999;28;20057;-85
2021/01/22 00:07:30;;;;;;;0.17;0.17;;;;;;;1.28;100.00;96844.47;5032572;28;20052;-84
2021/01/22 00:10:33;;;;;;;0.10;0.10;;;;;;;1.21;100.00;96847.66;5032482;28;20056;-85
2021/01/22 00:13:37;;;;;;;0.20;0.20;;;;;;;1.08;100.00;96850.06;5033175;28;20052;-88
2021/01/22 00:16:41;;;;;;;0.30;0.30;;;;;;;0.98;100.00;96856.16;5033436;28;20049;-84
2021/01/22 00:19:44;;;;;;;0.20;0.20;;;;;;;0.88;100.00;96863.81;5033422;28;20091;-85
2021/01/22 00:22:47;;;;;;;0.20;0.20;;;;;;;0.90;100.00;96872.31;5032877;28;20052;-87
2021/01/22 00:25:51;;;;;;;0.10;0.10;;;;;;;1.02;100.00;96865.69;5032467;28;20418;-86
2021/01/22 00:28:54;;;;;;;0.20;0.20;;;;;;;1.17;100.00;96869.06;5032894;28;20596;-85
2021/01/22 00:31:57;;;;;;;0.20;0.20;;;;;;;1.19;100.00;96869.31;5032727;28;20048;-86
2021/01/22 00:35:01;;;;;;;0.20;0.20;;;;;;;1.29;100.00;96876.16;5032336;28;20398;-86
2021/01/22 00:38:05;;;;;;;0.15;0.15;;;;;;;1.39;100.00;96869.25;5032546;28;20045;-86
2021/01/22 00:41:09;;;;;;;0.10;0.10;;;;;;;1.47;100.00;96875.78;5032164;28;20406;-86
2021/01/22 00:44:12;;;;;;;0.10;0.10;;;;;;;1.42;100.00;96879.25;5032079;28;20056;-86
2021/01/22 00:47:16;;;;;;;0.10;0.10;;;;;;;1.38;100.00;96889.69;5032324;28;20485;-86
2021/01/22 00:50:19;;;;;;;0.20;0.20;;;;;;;1.38;100.00;96881.47;5032691;28;20516;-87
2021/01/22 00:53:23;;;;;;;0.17;0.17;;;;;;;1.40;100.00;96891.94;5033286;28;20056;-85
2021/01/22 00:56:26;;;;;;;0.10;0.10;;;;;;;1.47;100.00;96892.22;5031904;28;20060;-86
2021/01/22 00:59:29;;;;;;;0.10;0.10;;;;;;;1.59;100.00;96892.31;5032181;28;20072;-86
2021/01/22 01:02:33;;;;;;;0.10;0.10;;;;;;;1.60;100.00;96899.31;5032349;28;20052;-87
2021/01/22 01:05:36;;;;;;;0.10;0.10;;;;;;;1.64;100.00;96886.88;5031850;28;20060;-86
2021/01/22 01:08:39;;;;;;;0.20;0.20;;;;;;;1.75;100.00;96897.19;5032632;28;20529;-86
2021/01/22 01:11:44;;;;;;;0.10;0.10;;;;;;;1.90;100.00;96895.03;5032490;28;20052;-86
2021/01/22 01:14:48;;;;;;;0.10;0.10;;;;;;;1.94;100.00;96888.09;5032428;28;20056;-86
2021/01/22 01:17:51;;;;;;;0.10;0.10;;;;;;;1.88;100.00;96900.25;5033037;28;20052;-86
2021/01/22 01:20:55;;;;;;;0.10;0.10;;;;;;;1.84;100.00;96907.97;5033289;28;20072;-87
2021/01/22 01:23:58;;;;;;;0.20;0.20;;;;;;;1.72;100.00;96917.34;5044679;28;20052;-86
2021/01/22 01:27:02;;;;;;;0.10;0.10;;;;;;;1.65;100.00;96917.78;5032900;28;20056;-86
2021/01/22 01:30:06;;;;;;;0.20;0.20;;;;;;;1.70;100.00;96911.59;5044757;28;20053;-85
2021/01/22 01:33:10;;;;;;;0.10;0.10;;;;;;;1.72;100.00;96917.34;5046506;28;20060;-85
2021/01/22 01:36:14;;;;;;;0.10;0.10;;;;;;;1.71;100.00;96921.34;5048584;28;20068;-87
2021/01/22 01:39:17;;;;;;;0.10;0.10;;;;;;;1.74;100.00;96926.59;5048429;28;20053;-86
2021/01/22 01:42:21;;;;;;;0.10;0.10;;;;;;;1.82;100.00;96924.91;5047959;28;20056;-86
2021/01/22 01:45:25;;;;;;;0.10;0.10;;;;;;;1.87;100.00;96932.44;5036640;28;20057;-86
2021/01/22 01:48:29;;;;;;;0.10;0.10;;;;;;;1.87;100.00;96935.19;5036621;28;20059;-86
2021/01/22 01:51:33;;;;;;;0.10;0.10;;;;;;;1.88;100.00;96931.19;5037136;28;20504;-87
2021/01/22 01:54:37;;;;;;;0.10;0.10;;;;;;;1.93;100.00;96937.94;5037570;28;20052;-86
2021/01/22 01:57:41;;;;;;;0.10;0.10;;;;;;;1.94;100.00;96940.22;5047156;28;20052;-86
2021/01/22 02:00:44;;;;;;;0.10;0.10;;;;;;;1.88;100.00;96939.44;5037779;28;20767;-86
2021/01/22 02:03:48;;;;;;;0.10;0.10;;;;;;;1.79;100.00;96944.34;5047760;28;20052;-86
2021/01/22 02:06:52;;;;;;;0.10;0.10;;;;;;;1.69;100.00;96943.03;5047032;28;20048;-86
2021/01/22 02:09:55;;;;;;;0.10;0.10;;;;;;;1.57;100.00;96938.66;5036211;28;20049;-86
2021/01/22 02:13:02;;;;;;;0.20;0.20;;;;;;;1.61;100.00;96955.66;5047457;28;20072;-87
2021/01/22 02:16:06;;;;;;;0.30;0.30;;;;;;;1.57;100.00;96955.13;5047780;28;20060;-88
2021/01/22 02:19:12;;;;;;;0.20;0.20;;;;;;;1.45;100.00;96949.53;5035270;28;20045;-86
2021/01/22 02:22:16;;;;;;;0.10;0.10;;;;;;;1.41;100.00;96954.50;5035919;28;20053;-87
2021/01/22 02:25:25;;;;;;;0.22;0.22;;;;;;;1.45;100.00;96955.03;5036320;28;20056;-87
2021/01/22 02:28:29;;;;;;;0.20;0.20;;;;;;;1.47;100.00;96960.78;5035739;28;20053;-86
2021/01/22 02:31:41;;;;;;;0.10;0.10;;;;;;;1.57;100.00;96960.63;5035268;28;20060;-87
2021/01/22 02:34:45;;;;;;;0.20;0.20;;;;;;;1.53;100.00;96966.31;5034450;28;20043;-88
2021/01/22 02:37:49;;;;;;;0.10;0.08;;;;;;;1.42;100.00;96966.97;5034268;28;20068;-87
2021/01/22 02:40:57;;;;;;;0.10;0.10;;;;;;;1.35;100.00;96963.91;5033599;28;20057;-86
2021/01/22 02:44:03;;;;;;;0.10;0.10;;;;;;;1.20;100.00;96971.47;5033060;28;20044;-87
2021/01/22 02:47:09;;;;;;;0.10;0.10;;;;;;;1.03;100.00;96974.06;5033220;28;20064;-86
2021/01/22 02:50:32;;;;;;;0.13;0.13;;;;;;;0.97;100.00;96975.97;5033340;28;20048;-86
2021/01/22 02:53:35;;;;;;;0.20;0.20;;;;;;;0.85;100.00;96984.53;5032775;28;20053;-87
2021/01/22 02:57:10;;;;;;;0.10;0.10;;;;;;;0.68;100.00;96981.59;5033494;28;20211;-86
2021/01/22 03:00:25;;;;;;;0.20;0.20;;;;;;;0.49;100.00;96996.78;5032904;28;20056;-86
2021/01/22 03:03:37;;;;;;;0.20;0.20;;;;;;;0.37;100.00;96995.88;5033480;28;20068;-85
2021/01/22 03:06:43;;;;;;;0.20;0.20;;;;;;;0.29;100.00;96996.75;5032886;28;20072;-85
2021/01/22 03:09:51;;;;;;;0.20;0.20;;;;;;;0.26;100.00;96989.50;5033314;28;20053;-87
2021/01/22 03:12:57;;;;;;;0.20;0.20;;;;;;;0.22;100.00;96999.91;5033491;28;20053;-86
2021/01/22 03:16:01;;;;;;;0.20;0.20;;;;;;;0.21;100.00;97001.88;5033682;28;20583;-86
2021/01/22 03:19:04;;;;;;;0.20;0.20;;;;;;;0.29;100.00;97004.97;5033257;28;20068;-86
2021/01/22 03:22:08;;;;;;;0.30;0.30;;;;;;;0.31;100.00;97007.97;5032704;28;20052;-87
2021/01/22 03:25:12;;;;;;;0.20;0.20;;;;;;;0.28;100.00;97006.22;5033023;28;20061;-86
2021/01/22 03:28:16;;;;;;;0.30;0.30;;;;;;;0.24;100.00;97008.38;5033425;28;20052;-86
2021/01/22 03:31:19;;;;;;;0.40;0.40;;;;;;;0.18;100.00;97013.75;5033263;28;20072;-86
2021/01/22 03:34:26;;;;;;;0.20;0.20;;;;;;;0.07;100.00;97015.56;5033546;28;20061;-85
2021/01/22 03:37:29;;;;;;;0.30;0.30;;;;;;;0.03;100.00;97026.72;5033053;28;20048;-86
2021/01/22 03:40:33;;;;;;;0.10;0.10;;;;;;;0.00;100.00;97022.94;5032658;28;20048;-86
2021/01/22 03:43:36;;;;;;;0.30;0.30;;;;;;;-0.01;100.00;97024.19;5032776;28;20056;-86
2021/01/22 03:46:39;;;;;;;0.25;0.25;;;;;;;-0.07;100.00;97028.81;5032657;28;20060;-86
2021/01/22 03:49:43;;;;;;;0.20;0.20;;;;;;;-0.12;100.00;97026.75;5032333;28;20057;-85
2021/01/22 03:52:46;;;;;;;0.30;0.30;;;;;;;-0.12;100.00;97032.22;5032874;28;20052;-86
2021/01/22 03:55:50;;;;;;;0.20;0.20;;;;;;;-0.14;100.00;97039.38;5033466;28;20056;-86
2021/01/22 03:58:54;;;;;;;0.35;0.35;;;;;;;-0.18;100.00;97038.81;5031773;28;20056;-86
2021/01/22 04:01:57;;;;;;;0.32;0.32;;;;;;;-0.26;100.00;97038.44;5033375;28;20076;-86
2021/01/22 04:05:01;;;;;;;0.30;0.30;;;;;;;-0.31;100.00;97043.81;5033069;28;20064;-86
2021/01/22 04:08:05;;;;;;;0.25;0.25;;;;;;;-0.37;100.00;97040.97;5032358;28;20048;-85
2021/01/22 04:11:10;;;;;;;0.30;0.30;;;;;;;-0.38;100.00;97055.88;5032172;28;20056;-86
2021/01/22 04:14:13;;;;;;;0.35;0.35;;;;;;;-0.42;100.00;97052.56;5032626;28;20057;-86
2021/01/22 04:17:17;;;;;;;0.30;0.30;;;;;;;-0.47;100.00;97055.97;5033436;28;20052;-85
2021/01/22 04:20:21;;;;;;;0.30;0.30;;;;;;;-0.48;100.00;97059.94;5031846;28;20520;-85
2021/01/22 04:23:24;;;;;;;0.28;0.28;;;;;;;-0.47;100.00;97061.41;5032308;28;20080;-84
2021/01/22 04:26:28;;;;;;;0.13;0.13;;;;;;;-0.47;100.00;97061.41;5032045;28;20109;-85
2021/01/22 04:29:32;;;;;;;0.30;0.30;;;;;;;-0.48;100.00;97054.47;5032169;28;20051;-85
2021/01/22 04:32:35;;;;;;;0.25;0.25;;;;;;;-0.49;100.00;97065.84;5032112;28;20068;-85
2021/01/22 04:35:38;;;;;;;0.30;0.30;;;;;;;-0.37;100.00;97062.84;5032116;28;20441;-85
2021/01/22 04:38:41;;;;;;;0.20;0.20;;;;;;;-0.35;100.00;97063.16;5031723;28;20505;-85
2021/01/22 04:41:45;;;;;;;0.30;0.30;;;;;;;-0.35;100.00;97065.88;5031536;28;20052;-86
2021/01/22 04:44:49;;;;;;;0.20;0.20;;;;;;;-0.34;100.00;97061.91;5031677;28;20056;-84
2021/01/22 04:47:52;;;;;;;0.20;0.20;;;;;;;-0.22;100.00;97066.31;5031756;28;20559;-85
2021/01/22 04:50:58;;;;;;;0.32;0.32;;;;;;;-0.09;100.00;97061.34;5031605;28;20052;-85
2021/01/22 04:54:26;;;;;;;0.28;0.28;;;;;;;-0.04;100.00;97071.63;5031917;28;20053;-83
2021/01/22 04:57:32;;;;;;;0.40;0.40;;;;;;;-0.04;100.00;97071.63;5031914;28;20056;-85
2021/01/22 05:00:39;;;;;;;0.30;0.30;;;;;;;-0.10;100.00;97078.97;5032207;28;20068;-84
2021/01/22 05:03:43;;;;;;;0.30;0.30;;;;;;;-0.14;100.00;97075.69;5031895;28;20072;-85
2021/01/22 05:06:50;;;;;;;0.30;0.30;;;;;;;-0.21;100.00;97078.78;5032485;28;20100;-85
2021/01/22 05:09:54;;;;;;;0.22;0.22;;;;;;;-0.28;100.00;97081.16;5035214;28;20049;-84
2021/01/22 05:13:00;;;;;;;0.40;0.40;;;;;;;-0.37;100.00;97084.72;5035419;28;20060;-85
2021/01/22 05:16:14;;;;;;;0.30;0.30;;;;;;;-0.45;100.00;97080.06;5035315;28;20048;-84
2021/01/22 05:19:21;;;;;;;0.20;0.20;;;;;;;-0.54;100.00;97080.91;5035411;28;20052;-84
2021/01/22 05:22:24;;;;;;;0.30;0.30;;;;;;;-0.59;100.00;97089.78;5034984;28;20516;-84
2021/01/22 05:25:28;;;;;;;0.30;0.30;;;;;;;-0.65;100.00;97099.09;5035552;28;20057;-84
2021/01/22 05:28:43;;;;;;;0.30;0.30;;;;;;;-0.70;100.00;97094.28;5035350;28;20068;-84
2021/01/22 05:31:46;;;;;;;0.10;0.10;;;;;;;-0.72;100.00;97097.47;5035070;28;20056;-84
2021/01/22 05:34:50;;;;;;;0.25;0.25;;;;;;;-0.75;100.00;97095.66;5034788;28;20048;-84
2021/01/22 05:37:57;;;;;;;0.20;0.20;;;;;;;-0.77;100.00;97103.56;5035680;28;20050;-84
2021/01/22 05:41:05;;;;;;;0.50;0.50;;;;;;;-0.81;100.00;97108.47;5034605;28;20048;-84
2021/01/22 05:44:19;;;;;;;0.30;0.30;;;;;;;-0.85;100.00;97105.94;5034867;28;20064;-84
2021/01/22 05:47:22;;;;;;;0.40;0.40;;;;;;;-0.86;100.00;97100.91;5035115;28;20060;-85
2021/01/22 05:50:26;;;;;;;0.25;0.25;;;;;;;-0.88;100.00;97111.53;5034828;28;20064;-85
2021/01/22 05:53:29;;;;;;;0.30;0.30;;;;;;;-0.90;100.00;97112.03;5034796;28;20064;-85
2021/01/22 05:56:33;;;;;;;0.20;0.20;;;;;;;-0.92;100.00;97113.69;5034493;28;20508;-86
2021/01/22 05:59:37;;;;;;;0.10;0.10;;;;;;;-0.93;100.00;97117.63;5034882;28;20072;-83
2021/01/22 06:02:40;;;;;;;0.20;0.20;;;;;;;-0.92;100.00;97119.94;5034520;28;20512;-84
2021/01/22 06:05:51;;;;;;;0.30;0.30;;;;;;;-0.91;100.00;97118.69;5034216;28;20523;-83
2021/01/22 06:09:00;;;;;;;0.20;0.20;;;;;;;-0.93;100.00;97123.09;5034225;28;20402;-83
2021/01/22 06:12:05;;;;;;;0.28;0.28;;;;;;;-0.94;100.00;97121.59;5034901;28;20113;-83
2021/01/22 06:15:11;;;;;;;0.30;0.30;;;;;;;-1.00;100.00;97129.69;5038573;28;20528;-83
2021/01/22 06:18:20;;;;;;;0.30;0.30;;;;;;;-1.02;100.00;97128.66;5034151;28;20048;-83
2021/01/22 06:21:25;;;;;;;0.30;0.30;;;;;;;-1.01;100.00;97138.34;5025346;28;20061;-83
2021/01/22 06:24:29;;;;;;;0.10;0.10;;;;;;;-1.03;100.00;97136.06;5025685;28;20410;-82
2021/01/22 06:27:34;;;;;;;0.35;0.35;;;;;;;-1.04;100.00;97142.00;5014280;28;20050;-82
2021/01/22 06:30:40;;;;;;;0.20;0.20;;;;;;;-1.06;100.00;97147.19;5027214;28;20060;-83
2021/01/22 06:33:45;;;;;;;0.20;0.20;;;;;;;-1.06;100.00;97147.19;5021748;28;20057;-83
2021/01/22 06:36:49;;;;;;;0.30;0.30;;;;;;;-1.04;100.00;97156.41;5013826;28;20053;-83
2021/01/22 06:39:55;;;;;;;0.10;0.10;;;;;;;-1.04;100.00;97150.19;5014473;28;20057;-83
2021/01/22 06:42:58;;;;;;;0.20;0.20;;;;;;;-1.08;100.00;97152.31;5014387;28;20109;-82
2021/01/22 06:46:06;;;;;;;0.20;0.20;;;;;;;-1.10;100.00;97158.25;5015449;28;20057;-81
2021/01/22 06:49:09;;;;;;;0.20;0.20;;;;;;;-1.08;100.00;97160.50;5017887;28;20049;-81
2021/01/22 06:52:13;;;;;;;0.30;0.30;;;;;;;-1.08;100.00;97165.97;5016734;28;20061;-82
2021/01/22 06:55:16;;;;;;;0.40;0.40;;;;;;;-1.09;100.00;97176.16;5012510;28;20053;-81
2021/01/22 06:58:31;;;;;;;0.30;0.30;;;;;;;-1.08;100.00;97171.44;5014542;28;20053;-81
2021/01/22 07:01:35;;;;;;;0.20;0.20;;;;;;;-1.10;100.00;97173.88;5012605;28;20448;-81
2021/01/22 07:04:40;;;;;;;0.20;0.20;;;;;;;-1.12;100.00;97176.31;5012715;28;20052;-82
2021/01/22 07:07:44;;;;;;;0.32;0.32;;;;;;;-1.10;100.00;97191.03;5013280;28;20057;-81
2021/01/22 07:11:06;;;;;;;0.30;0.30;;;;;;;-1.11;100.00;97191.50;5012723;28;20398;-80
2021/01/22 07:14:37;;;;;;;0.22;0.22;;;;;;;-1.14;100.00;97200.59;5012235;28;20065;-80
2021/01/22 07:17:48;;;;;;;0.32;0.32;;;;;;;-1.13;100.00;97213.81;5012306;28;20053;-81
2021/01/22 07:21:44;;;;;;;0.30;0.30;;;;;;;-1.13;100.00;97218.50;5031903;28;20052;-81
2021/01/22 07:24:49;;;;;;;0.30;0.30;;;;;;;-1.12;100.00;97220.00;5020604;28;20501;-80
2021/01/22 07:27:53;;;;;;;0.30;0.30;;;;;;;-1.09;100.00;97224.56;5031822;28;20056;-80
2021/01/22 07:30:56;;;;;;;0.40;0.40;;;;;;;-1.09;100.00;97238.22;5032236;28;20049;-81
2021/01/22 07:34:00;;;;;;;0.30;0.30;;;;;;;-1.06;100.00;97223.63;5031805;28;20061;-80
2021/01/22 07:37:09;;;;;;;0.35;0.35;;;;;;;-1.04;100.00;97234.84;5031977;28;20053;-81
2021/01/22 07:40:14;;;;;;;0.20;0.20;;;;;;;-1.07;100.00;97233.81;5032544;28;20052;-80
2021/01/22 07:43:18;;;;;;;0.40;0.40;;;;;;;-1.09;100.00;97240.94;5032352;28;20072;-80
2021/01/22 07:46:21;;;;;;;0.40;0.40;;;;;;;-1.07;100.00;97258.38;5032694;28;20052;-83
2021/01/22 07:49:25;;;;;;;0.35;0.35;;;;;;;-1.03;100.00;97252.75;5031821;28;20071;-81
2021/01/22 07:52:28;;;;;;;0.30;0.30;;;;;;;-0.96;100.00;97260.59;5032009;28;20056;-81
2021/01/22 07:55:32;;;;;;;0.30;0.30;;;;;;;-0.91;100.00;97262.72;5032345;28;20061;-80
2021/01/22 07:58:38;;;;;;;0.45;0.45;;;;;;;-0.87;100.00;97257.84;5032277;28;20045;-80
2021/01/22 08:01:42;;;;;;;0.10;0.10;;;;;;;-0.89;100.00;97266.47;5032113;28;20051;-80
2021/01/22 08:04:59;;;;;;;0.20;0.20;;;;;;;-0.93;100.00;97273.31;5031139;28;20048;-81
2021/01/22 08:08:20;;;;;;;0.10;0.10;;;;;;;-1.00;100.00;97276.41;5032213;28;20397;-80
2021/01/22 08:11:23;;;;;;;0.28;0.28;;;;;;;-1.02;100.00;97276.13;5031582;28;20088;-81
2021/01/22 08:14:30;;;;;;;0.43;0.43;;;;;;;-1.04;100.00;97275.81;5024103;28;20057;-82
2021/01/22 08:17:33;;;;;;;0.30;0.30;;;;;;;-1.09;100.00;97282.66;5012211;28;20064;-80
2021/01/22 08:20:37;;;;;;;0.30;0.30;;;;;;;-1.10;100.00;97283.09;5028966;28;20076;-80
2021/01/22 08:23:44;;;;;;;0.30;0.30;;;;;;;-1.02;100.00;97281.56;5031821;28;20056;-80
2021/01/22 08:27:00;;;;;;;0.43;0.43;;;;;;;-1.01;100.00;97294.00;5030279;28;20056;-80
2021/01/22 08:30:04;;;;;;;0.30;0.30;;;;;;;-1.02;100.00;97295.22;5011527;28;20061;-79
2021/01/22 08:33:08;;;;;;;0.30;0.30;;;;;;;-1.03;100.00;97299.94;5011329;28;20065;-81
2021/01/22 08:36:13;;;;;;;0.20;0.20;;;;;;;-1.02;100.00;97308.88;5012050;28;20057;-82
2021/01/22 08:39:16;;;;;;;0.40;0.40;;;;;;;-0.99;100.00;97305.22;5012283;28;20054;-78
2021/01/22 08:42:20;;;;;;;0.35;0.35;;;;;;;-0.96;100.00;97309.78;5014864;28;20077;-79
2021/01/22 08:45:26;;;;;;;0.30;0.30;;;;;;;-0.95;100.00;97311.28;5015376;28;20069;-80
2021/01/22 08:48:29;;;;;;;0.30;0.30;;;;;;;-0.89;100.00;97317.66;5015010;28;20057;-80
2021/01/22 08:51:37;;;;;;;0.40;0.40;;;;;;;-0.86;100.00;97324.91;5015831;28;20045;-80
2021/01/22 08:54:40;;;;;;;0.25;0.25;;;;;;;-0.83;100.00;97329.44;5015330;28;20057;-79
2021/01/22 08:58:01;;;;;;;0.30;0.30;;;;;;;-0.83;100.00;97332.94;5015401;28;20056;-80
2021/01/22 09:01:05;;;;;;;0.30;0.30;;;;;;;-0.82;100.00;97330.94;5014765;28;20052;-79
2021/01/22 09:04:20;;;;;;;0.30;0.30;;;;;;;-0.80;100.00;97344.91;5015600;28;20093;-79
2021/01/22 09:07:24;;;;;;;0.30;0.30;;;;;;;-0.75;100.00;97336.09;5015030;28;20057;-80
2021/01/22 09:10:28;;;;;;;0.30;0.30;;;;;;;-0.69;100.00;97345.16;5015318;28;20061;-79
2021/01/22 09:13:32;;;;;;;0.40;0.40;;;;;;;-0.54;100.00;97356.94;5014263;28;20077;-79
2021/01/22 09:16:46;;;;;;;0.40;0.40;;;;;;;-0.35;100.00;97358.41;5015205;28;20049;-78
2021/01/22 09:19:51;;;;;;;0.22;0.22;;;;;;;-0.31;100.00;97344.56;5025611;28;20048;-80
2021/01/22 09:23:03;;;;;;;0.30;0.30;;;;;;;-0.26;100.00;97352.13;5014689;28;20520;-81
2021/01/22 09:26:07;;;;;;;0.32;0.32;;;;;;;-0.22;100.00;97349.97;5014522;28;20398;-83
2021/01/22 09:29:10;;;;;;;0.30;0.30;;;;;;;-0.18;100.00;97356.78;5016631;28;20057;-81
2021/01/22 09:32:13;;;;;;;0.30;0.30;;;;;;;0.00;100.00;97356.66;5014780;28;20057;-80
2021/01/22 09:35:18;;;;;;;0.20;0.20;;;;;;;0.12;100.00;97362.38;5013843;28;20053;-81
2021/01/22 09:38:22;;;;;;;0.30;0.30;;;;;;;0.25;100.00;97362.91;5014884;28;20049;-80
2021/01/22 09:41:25;;;;;;;0.20;0.20;;;;;;;0.46;100.00;97375.50;5013365;28;20134;-80
2021/01/22 09:44:28;;;;;;;0.30;0.30;;;;;;;0.55;100.00;97372.69;5013372;28;20061;-80
2021/01/22 09:47:32;;;;;;;0.22;0.22;;;;;;;0.57;100.00;97373.75;5014063;28;20060;-80
2021/01/22 09:50:35;;;;;;;0.20;0.20;;;;;;;0.68;100.00;97381.41;5013482;28;20049;-80
2021/01/22 09:53:38;;;;;;;0.20;0.20;;;;;;;0.69;100.00;97372.00;5013850;28;20049;-80
2021/01/22 09:56:42;;;;;;;0.20;0.20;;;;;;;0.68;100.00;97373.97;5013842;28;20053;-80
2021/01/22 09:59:46;;;;;;;0.20;0.20;;;;;;;0.75;100.00;97379.06;5014205;28;20061;-76
2021/01/22 10:02:49;;;;;;;0.20;0.20;;;;;;;0.90;100.00;97379.09;5014318;28;20814;-77
2021/01/22 10:05:52;;;;;;;0.20;0.20;;;;;;;0.95;100.00;97383.94;5014254;28;20052;-77
2021/01/22 10:08:56;;;;;;;0.20;0.20;;;;;;;0.96;100.00;97388.16;5014035;28;20405;-77
2021/01/22 10:12:00;;;;;;;0.30;0.30;;;;;;;1.18;100.00;97385.81;5013926;28;20410;-77
2021/01/22 10:15:05;;;;;;;0.20;0.20;;;;;;;1.29;100.00;97383.25;5011745;28;20402;-81
2021/01/22 10:18:11;;;;;;;0.20;0.20;;;;;;;1.30;100.00;97376.53;5013161;28;20137;-83
2021/01/22 10:21:17;;;;;;;0.17;0.17;;;;;;;1.41;100.00;97382.19;5012569;28;20108;-78
2021/01/22 10:24:20;;;;;;;0.30;0.30;;;;;;;1.48;100.00;97392.03;5014348;28;20057;-81
2021/01/22 10:27:24;;;;;;;0.10;0.10;;;;;;;1.57;100.00;97389.19;5014356;28;20532;-82
2021/01/22 10:30:27;;;;;;;0.20;0.20;;;;;;;1.62;100.00;97390.50;5024822;28;20053;-82
2021/01/22 10:33:31;;;;;;;0.10;0.10;;;;;;;1.87;100.00;97393.38;5014742;28;20057;-83
2021/01/22 10:36:35;;;;;;;0.10;0.10;;;;;;;1.91;100.00;97382.97;5024962;28;20049;-78
2021/01/22 10:39:39;;;;;;;0.20;0.20;;;;;;;1.98;100.00;97396.28;5013808;28;20049;-79
2021/01/22 10:42:46;;;;;;;0.30;0.30;;;;;;;1.97;100.00;97402.28;5013736;28;20131;-78
2021/01/22 10:45:50;;;;;;;0.10;0.10;;;;;;;1.87;100.00;97412.59;5013303;28;20060;-79
2021/01/22 10:48:53;;;;;;;0.20;0.20;;;;;;;1.89;100.00;97410.13;5014007;28;20068;-78
2021/01/22 10:51:57;;;;;;;0.10;0.10;;;;;;;1.99;100.00;97411.50;5013762;28;20061;-77
2021/01/22 10:55:00;;;;;;;0.10;0.10;;;;;;;2.09;100.00;97420.38;5013597;28;20045;-81
2021/01/22 10:58:03;;;;;;;0.10;0.10;;;;;;;2.14;100.00;97414.97;5019149;28;20049;-78
2021/01/22 11:01:07;;;;;;;0.15;0.15;;;;;;;2.12;100.00;97414.69;5012846;28;20053;-79
2021/01/22 11:04:10;;;;;;;0.10;0.10;;;;;;;2.13;100.00;97416.22;5012948;28;20053;-79
2021/01/22 11:07:14;;;;;;;0.10;0.10;;;;;;;2.38;100.00;97425.78;5013335;28;20418;-78
2021/01/22 11:10:19;;;;;;;0.10;0.10;;;;;;;2.46;100.00;97413.16;5016067;28;20048;-79
2021/01/22 11:13:23;;;;;;;0.10;0.10;;;;;;;2.54;100.00;97418.97;5033335;28;20056;-78
2021/01/22 11:16:26;;;;;;;0.10;0.10;;;;;;;2.63;100.00;97416.09;5033340;28;20056;-80
2021/01/22 11:19:31;;;;;;;0.10;0.10;;;;;;;2.59;100.00;97416.31;5033460;28;20056;-81
2021/01/22 11:22:36;;;;;;;0.10;0.10;;;;;;;2.58;100.00;97420.28;5029171;28;20060;-84
2021/01/22 11:25:40;;;;;;;0.10;0.10;;;;;;;2.56;100.00;97414.53;5014601;28;20065;-83
2021/01/22 11:28:44;;;;;;;0.10;0.10;;;;;;;2.70;100.00;97419.19;5021066;28;20052;-83
2021/01/22 11:31:48;;;;;;;0.10;0.10;;;;;;;2.75;100.00;97407.50;5045524;28;20406;-83
2021/01/22 11:34:52;;;;;;;0.10;0.10;;;;;;;2.79;100.00;97408.06;5044603;28;20501;-84
2021/01/22 11:37:56;;;;;;;0.13;0.13;;;;;;;2.88;100.00;97409.91;5038064;28;20048;-84
2021/01/22 11:40:59;;;;;;;0.13;0.13;;;;;;;2.93;100.00;97407.22;5034393;28;20093;-82
2021/01/22 11:44:02;;;;;;;0.10;0.10;;;;;;;3.02;100.00;97414.56;5036503;28;20598;-82
2021/01/22 11:47:06;;;;;;;0.10;0.10;;;;;;;3.03;100.00;97414.06;5045794;28;20060;-82
2021/01/22 11:50:10;;;;;;;0.10;0.10;;;;;;;2.98;100.00;97414.78;5033133;28;20049;-83
2021/01/22 11:53:13;;;;;;;0.10;0.10;;;;;;;2.96;100.00;97414.50;5033430;28;20048;-80
2021/01/22 11:56:17;;;;;;;0.10;0.10;;;;;;;2.93;100.00;97412.72;5032145;28;20053;-80
2021/01/22 11:59:21;;;;;;;0.10;0.10;;;;;;;2.98;100.00;97425.00;5032001;28;20057;-80
2021/01/22 12:02:24;;;;;;;0.10;0.10;;;;;;;3.05;100.00;97419.81;5032551;28;20056;-82
2021/01/22 12:05:28;;;;;;;0.20;0.20;;;;;;;3.01;100.00;97413.06;5032388;28;20390;-78
2021/01/22 12:08:31;;;;;;;0.10;0.10;;;;;;;3.02;100.00;97414.56;5033997;28;20052;-85
2021/01/22 12:11:34;;;;;;;0.10;0.10;;;;;;;2.90;100.00;97421.91;5043509;28;20421;-84
2021/01/22 12:14:38;;;;;;;0.10;0.10;;;;;;;2.90;100.00;97419.16;5033172;28;20504;-85
2021/01/22 12:17:41;;;;;;;0.10;0.10;;;;;;;3.01;100.00;97413.78;5043753;28;20504;-87
2021/01/22 12:20:45;;;;;;;0.10;0.10;;;;;;;3.04;100.00;97418.34;5035975;28;20044;-84
2021/01/22 12:23:49;;;;;;;0.10;0.10;;;;;;;2.95;100.00;97410.22;5035616;28;20398;-84
2021/01/22 12:26:52;;;;;;;0.17;0.17;;;;;;;2.97;100.00;97413.25;5038788;28;20056;-84
2021/01/22 12:29:55;;;;;;;0.10;0.10;;;;;;;3.04;100.00;97407.34;5045706;28;20052;-84
2021/01/22 12:32:59;;;;;;;0.10;0.10;;;;;;;3.05;100.00;97397.09;5036323;28;20053;-83
2021/01/22 12:36:07;;;;;;;0.10;0.10;;;;;;;3.00;100.00;97395.03;5032827;28;20052;-83
2021/01/22 12:39:10;;;;;;;0.10;0.10;;;;;;;2.95;100.00;97399.25;5032611;28;20053;-84
2021/01/22 12:42:14;;;;;;;0.10;0.10;;;;;;;2.96;100.00;97392.50;5035664;28;20041;-84
2021/01/22 12:45:18;;;;;;;0.10;0.10;;;;;;;3.00;100.00;97387.56;5033250;28;20064;-84
2021/01/22 12:48:22;;;;;;;0.10;0.10;;;;;;;3.02;100.00;97392.56;5036013;28;20052;-85
2021/01/22 12:51:25;;;;;;;0.10;0.10;;;;;;;2.96;100.00;97398.00;5039839;28;20511;-85
2021/01/22 12:54:30;;;;;;;0.10;0.10;;;;;;;2.94;100.00;97397.75;5038171;28;20069;-83
2021/01/22 12:57:33;;;;;;;0.10;0.10;;;;;;;3.13;100.00;97389.91;5032664;28;20068;-84
2021/01/22 13:00:37;;;;;;;0.13;0.13;;;;;;;3.22;100.00;97394.50;5032115;28;20052;-83
2021/01/22 13:03:40;;;;;;;0.10;0.10;;;;;;;3.28;100.00;97387.81;5032823;28;20405;-83
2021/01/22 13:06:43;;;;;;;0.10;0.10;;;;;;;3.32;100.00;97393.09;5034416;28;20060;-84
2021/01/22 13:09:48;;;;;;;0.10;0.10;;;;;;;3.36;100.00;97390.88;5037572;28;20072;-82
2021/01/22 13:12:51;;;;;;;0.10;0.10;;;;;;;3.43;100.00;97398.69;5035480;28;20061;-83
2021/01/22 13:15:55;;;;;;;0.10;0.10;;;;;;;3.47;100.00;97396.47;5033265;28;20064;-84
2021/01/22 13:18:59;;;;;;;0.10;0.10;;;;;;;3.46;100.00;97398.50;5033144;28;20052;-84
2021/01/22 13:22:03;;;;;;;0.10;0.10;;;;;;;3.48;100.00;97390.50;5044896;28;20090;-84
2021/01/22 13:25:07;;;;;;;0.10;0.10;;;;;;;3.51;100.00;97384.00;5043187;28;20056;-84
2021/01/22 13:28:11;;;;;;;0.10;0.10;;;;;;;3.56;100.00;97383.31;5045849;28;20090;-83
2021/01/22 13:31:14;;;;;;;0.10;0.10;;;;;;;3.68;100.00;97386.91;5045039;28;20052;-82
2021/01/22 13:34:18;;;;;;;0.10;0.10;;;;;;;3.80;100.00;97388.47;5040957;28;20060;-83
2021/01/22 13:37:22;;;;;;;0.10;0.10;;;;;;;3.87;100.00;97387.28;5039631;28;20048;-83
2021/01/22 13:40:26;;;;;;;0.10;0.10;;;;;;;3.90;100.00;97384.28;5040402;28;20496;-83
2021/01/22 13:43:29;;;;;;;0.10;0.10;;;;;;;3.92;100.00;97390.06;5039147;28;20056;-83
2021/01/22 13:46:33;;;;;;;0.10;0.03;;;;;;;3.92;100.00;97395.56;5035144;28;20053;-83
2021/01/22 13:49:36;;;;;;;0.10;0.10;;;;;;;3.95;100.00;97397.34;5034538;28;20064;-82
2021/01/22 13:52:39;;;;;;;0.10;0.10;;;;;;;3.85;100.00;97401.53;5036346;28;20052;-82
2021/01/22 13:55:44;;;;;;;0.10;0.10;;;;;;;3.71;100.00;97394.16;5036628;28;20060;-82
2021/01/22 13:58:49;;;;;;;0.10;0.10;;;;;;;3.57;100.00;97398.56;5034835;28;20056;-81
2021/01/22 14:01:52;;;;;;;0.10;0.10;;;;;;;3.44;100.00;97397.47;5035633;28;20052;-81
2021/01/22 14:04:55;;;;;;;0.10;0.10;;;;;;;3.36;100.00;97410.13;5034617;28;20052;-81
2021/01/22 14:07:59;;;;;;;0.10;0.10;;;;;;;3.38;100.00;97402.16;5038432;28;20056;-82
2021/01/22 14:11:03;;;;;;;0.20;0.20;;;;;;;3.41;100.00;97406.69;5038718;28;20056;-83
2021/01/22 14:14:06;;;;;;;0.10;0.10;;;;;;;3.32;100.00;97415.09;5034864;28;20052;-81
2021/01/22 14:17:10;;;;;;;0.10;0.10;;;;;;;3.33;100.00;97405.59;5033672;28;20053;-80
2021/01/22 14:20:13;;;;;;;0.13;0.13;;;;;;;3.38;100.00;97419.41;5033825;28;20076;-78
2021/01/22 14:23:17;;;;;;;0.10;0.10;;;;;;;3.41;100.00;97423.19;5036181;28;20061;-84
2021/01/22 14:26:22;;;;;;;0.10;0.10;;;;;;;3.39;100.00;97426.44;5037558;28;20394;-83